Long Hua — VRFR5 — position and weather

sailwx.info

Track history (hours):
 
Tides and Currents Weather Stations Pressure Air Temp Water Temp Dewpoint Dewpoint Depression Visibility Wind Speed Wind Dir Waves Ship Positions

Long Hua

Last reported at 2016-Jul-24 17:33 UTC. Time now 2016-Jul-24 18:32 UTC.
Position N 24°22' E 118°10'.

Length 180 m; draft 6.1 m.

Type: Cargo ship. MMSI: 477622800.

Date/timePositionNaut miles runAvg speedWind from/ knotsBaromVisibWave heightAir tempDewpointWater temp
2016-Jul-24 17:33N 24°22' E 118°10'0 0.0
2016-Jul-24 16:33N 24°22' E 118°10'0 0.0
2016-Jul-24 15:33N 24°22' E 118°10'0 0.1
2016-Jul-24 14:33N 24°22' E 118°10'0 0.1
2016-Jul-24 13:27N 24°21' E 118°10'0 0.1
2016-Jul-24 12:33N 24°21' E 118°10'0 0.0
2016-Jul-24 11:33N 24°21' E 118°10'0 0.0
2016-Jul-24 10:33N 24°21' E 118°10'0 0.2
2016-Jul-24 09:33N 24°21' E 118°10'0 0.0
2016-Jul-24 08:33N 24°22' E 118°10'0 0.1
2016-Jul-24 07:33N 24°22' E 118°10'0 0.0
2016-Jul-24 06:30N 24°22' E 118°10'0 0.0
2016-Jul-24 05:33N 24°22' E 118°10'1 0.5
2016-Jul-24 04:33N 24°22' E 118°11'9 9.4
2016-Jul-24 03:33N 24°20' E 118°21'1311.1
2016-Jul-24 02:22N 24°23' E 118°35'911.0
2016-Jul-24 01:32N 24°26' E 118°45'2211.1
2016-Jul-23 23:33N 24°33' E 119°07'1111.3
2016-Jul-23 22:33N 24°37' E 119°19'1111.2
2016-Jul-23 21:33N 24°41' E 119°31'1211.6
2016-Jul-23 20:33N 24°45' E 119°43'  
2016-Jul-18 12:13N 24°24' E 118°40'1212.0
2016-Jul-18 11:14N 24°20' E 118°27'811.7
2016-Jul-18 10:33N 24°20' E 118°19'1010.4
2016-Jul-18 09:33N 24°23' E 118°08'9 8.8
2016-Jul-18 08:33N 24°31' E 118°04'2 1.7
2016-Jul-18 07:32N 24°32' E 118°05'0 0.0
2016-Jul-18 06:20N 24°32' E 118°05'0 0.0
2016-Jul-18 05:26N 24°32' E 118°05'0 0.0
2016-Jul-18 04:23N 24°32' E 118°05'0 0.0
2016-Jul-18 03:26N 24°32' E 118°05'0 0.0
2016-Jul-18 02:32N 24°32' E 118°05'0 0.0
2016-Jul-18 01:32N 24°32' E 118°05'0 0.0
2016-Jul-18 00:32N 24°32' E 118°05'0 0.0
2016-Jul-17 23:29N 24°32' E 118°05'0 0.0
2016-Jul-17 22:32N 24°32' E 118°05'0 0.0
2016-Jul-17 21:32N 24°32' E 118°05'0 0.0
2016-Jul-17 20:32N 24°32' E 118°05'0 0.0
2016-Jul-17 19:32N 24°32' E 118°05'0 0.0
2016-Jul-17 18:29N 24°32' E 118°05'0 0.0
2016-Jul-17 17:32N 24°32' E 118°05'0 0.0
2016-Jul-17 16:32N 24°32' E 118°05'0 0.0
2016-Jul-17 15:29N 24°32' E 118°05'0 0.0
2016-Jul-17 14:32N 24°32' E 118°05'0 0.0
2016-Jul-17 13:26N 24°32' E 118°05'0 0.0
2016-Jul-17 12:32N 24°32' E 118°05'0 0.0
2016-Jul-17 11:32N 24°32' E 118°05'0 0.0
2016-Jul-17 10:26N 24°32' E 118°05'0 0.0
2016-Jul-17 09:32N 24°32' E 118°05'0 0.0
2016-Jul-17 08:32N 24°32' E 118°05'0 0.0
2016-Jul-17 06:29N 24°32' E 118°05'0 0.0
2016-Jul-17 04:32N 24°32' E 118°05'0 0.0
2016-Jul-17 03:32N 24°32' E 118°05'5 5.5
2016-Jul-17 02:33N 24°28' E 118°03'9 8.5
2016-Jul-17 01:31N 24°21' E 118°10'0 0.1
2016-Jul-17 00:31N 24°22' E 118°10'0 0.1
2016-Jul-16 23:31N 24°22' E 118°10'0 0.1
2016-Jul-16 22:31N 24°22' E 118°10'0 0.1
2016-Jul-16 21:31N 24°22' E 118°10'0 0.1
2016-Jul-16 20:31N 24°21' E 118°10'0 0.0
2016-Jul-16 19:31N 24°21' E 118°10'0 0.0
2016-Jul-16 18:31N 24°21' E 118°10'0 0.0
2016-Jul-16 17:28N 24°21' E 118°10'0 0.1
2016-Jul-16 16:31N 24°22' E 118°10'0 0.0
2016-Jul-16 15:13N 24°22' E 118°10'0 0.0
2016-Jul-16 14:04N 24°22' E 118°10'0 0.1
2016-Jul-16 13:22N 24°22' E 118°10'0 0.0
2016-Jul-16 12:31N 24°22' E 118°10'0 0.0
2016-Jul-16 10:22N 24°22' E 118°10'0 0.0
2016-Jul-16 09:31N 24°22' E 118°10'0 0.0
2016-Jul-16 08:13N 24°22' E 118°10'0 0.0
2016-Jul-16 07:31N 24°22' E 118°10'0 0.0
2016-Jul-16 06:31N 24°22' E 118°10'6 3.2
2016-Jul-16 04:33N 24°20' E 118°17'  
Track history (hours):
 
Tides and Currents Weather Stations Pressure Air Temp Water Temp Dewpoint Dewpoint Depression Visibility Wind Speed Wind Dir Waves Ship Positions

Long Hua

Last reported at 2016-Jul-24 17:33 UTC. Time now 2016-Jul-24 18:32 UTC.
Position N 24°22' E 118°10'.

Length 180 m; draft 6.1 m.

Type: Cargo ship. MMSI: 477622800.

Date/timePositionNaut miles runAvg speedWind from/ knotsBaromVisibWave heightAir tempDewpointWater temp
2016-Jul-24 17:33N 24°22' E 118°10'0 0.0
2016-Jul-24 16:33N 24°22' E 118°10'0 0.0
2016-Jul-24 15:33N 24°22' E 118°10'0 0.1
2016-Jul-24 14:33N 24°22' E 118°10'0 0.1
2016-Jul-24 13:27N 24°21' E 118°10'0 0.1
2016-Jul-24 12:33N 24°21' E 118°10'0 0.0
2016-Jul-24 11:33N 24°21' E 118°10'0 0.0
2016-Jul-24 10:33N 24°21' E 118°10'0 0.2
2016-Jul-24 09:33N 24°21' E 118°10'0 0.0
2016-Jul-24 08:33N 24°22' E 118°10'0 0.1
2016-Jul-24 07:33N 24°22' E 118°10'0 0.0
2016-Jul-24 06:30N 24°22' E 118°10'0 0.0
2016-Jul-24 05:33N 24°22' E 118°10'1 0.5
2016-Jul-24 04:33N 24°22' E 118°11'9 9.4
2016-Jul-24 03:33N 24°20' E 118°21'1311.1
2016-Jul-24 02:22N 24°23' E 118°35'911.0
2016-Jul-24 01:32N 24°26' E 118°45'2211.1
2016-Jul-23 23:33N 24°33' E 119°07'1111.3
2016-Jul-23 22:33N 24°37' E 119°19'1111.2
2016-Jul-23 21:33N 24°41' E 119°31'1211.6
2016-Jul-23 20:33N 24°45' E 119°43'  
2016-Jul-18 12:13N 24°24' E 118°40'1212.0
2016-Jul-18 11:14N 24°20' E 118°27'811.7
2016-Jul-18 10:33N 24°20' E 118°19'1010.4
2016-Jul-18 09:33N 24°23' E 118°08'9 8.8
2016-Jul-18 08:33N 24°31' E 118°04'2 1.7
2016-Jul-18 07:32N 24°32' E 118°05'0 0.0
2016-Jul-18 06:20N 24°32' E 118°05'0 0.0
2016-Jul-18 05:26N 24°32' E 118°05'0 0.0
2016-Jul-18 04:23N 24°32' E 118°05'0 0.0
2016-Jul-18 03:26N 24°32' E 118°05'0 0.0
2016-Jul-18 02:32N 24°32' E 118°05'0 0.0
2016-Jul-18 01:32N 24°32' E 118°05'0 0.0
2016-Jul-18 00:32N 24°32' E 118°05'0 0.0
2016-Jul-17 23:29N 24°32' E 118°05'0 0.0
2016-Jul-17 22:32N 24°32' E 118°05'0 0.0
2016-Jul-17 21:32N 24°32' E 118°05'0 0.0
2016-Jul-17 20:32N 24°32' E 118°05'0 0.0
2016-Jul-17 19:32N 24°32' E 118°05'0 0.0
2016-Jul-17 18:29N 24°32' E 118°05'0 0.0
2016-Jul-17 17:32N 24°32' E 118°05'0 0.0
2016-Jul-17 16:32N 24°32' E 118°05'0 0.0
2016-Jul-17 15:29N 24°32' E 118°05'0 0.0
2016-Jul-17 14:32N 24°32' E 118°05'0 0.0
2016-Jul-17 13:26N 24°32' E 118°05'0 0.0
2016-Jul-17 12:32N 24°32' E 118°05'0 0.0
2016-Jul-17 11:32N 24°32' E 118°05'0 0.0
2016-Jul-17 10:26N 24°32' E 118°05'0 0.0
2016-Jul-17 09:32N 24°32' E 118°05'0 0.0
2016-Jul-17 08:32N 24°32' E 118°05'0 0.0
2016-Jul-17 06:29N 24°32' E 118°05'0 0.0
2016-Jul-17 04:32N 24°32' E 118°05'0 0.0
2016-Jul-17 03:32N 24°32' E 118°05'5 5.5
2016-Jul-17 02:33N 24°28' E 118°03'9 8.5
2016-Jul-17 01:31N 24°21' E 118°10'0 0.1
2016-Jul-17 00:31N 24°22' E 118°10'0 0.1
2016-Jul-16 23:31N 24°22' E 118°10'0 0.1
2016-Jul-16 22:31N 24°22' E 118°10'0 0.1
2016-Jul-16 21:31N 24°22' E 118°10'0 0.1
2016-Jul-16 20:31N 24°21' E 118°10'0 0.0
2016-Jul-16 19:31N 24°21' E 118°10'0 0.0
2016-Jul-16 18:31N 24°21' E 118°10'0 0.0
2016-Jul-16 17:28N 24°21' E 118°10'0 0.1
2016-Jul-16 16:31N 24°22' E 118°10'0 0.0
2016-Jul-16 15:13N 24°22' E 118°10'0 0.0
2016-Jul-16 14:04N 24°22' E 118°10'0 0.1
2016-Jul-16 13:22N 24°22' E 118°10'0 0.0
2016-Jul-16 12:31N 24°22' E 118°10'0 0.0
2016-Jul-16 10:22N 24°22' E 118°10'0 0.0
2016-Jul-16 09:31N 24°22' E 118°10'0 0.0
2016-Jul-16 08:13N 24°22' E 118°10'0 0.0
2016-Jul-16 07:31N 24°22' E 118°10'0 0.0
2016-Jul-16 06:31N 24°22' E 118°10'6 3.2
2016-Jul-16 04:33N 24°20' E 118°17'  

Dump ship's entire track history